createdAt,value
2022-08-08T13:05:25.818Z,1.40
2022-08-08T13:06:14.471Z,2.10
2022-08-08T13:07:03.075Z,1.90
2022-08-08T13:08:03.245Z,1.50
2022-08-08T13:08:53.486Z,1.30
2022-08-08T13:10:04.162Z,1.50
2022-08-08T13:10:46.017Z,1.80
2022-08-08T13:12:32.016Z,1.80
2022-08-08T13:13:06.204Z,1.50
2022-08-08T13:13:40.149Z,1.70
2022-08-08T13:14:16.924Z,1.80
2022-08-08T13:14:53.014Z,1.60
2022-08-08T13:15:29.623Z,1.60
2022-08-08T13:16:21.826Z,1.60
2022-08-08T13:16:59.423Z,1.90
2022-08-08T13:18:08.973Z,1.80
2022-08-08T13:18:27.650Z,1.80
2022-08-08T13:19:09.224Z,1.80
2022-08-08T13:19:50.172Z,1.60
2022-08-08T13:20:45.490Z,1.60
2022-08-08T13:21:17.346Z,1.50
2022-08-08T13:21:55.653Z,1.80
2022-08-08T13:22:37.297Z,1.50
2022-08-08T13:23:41.448Z,1.80
2022-08-08T13:24:19.007Z,1.60
2022-08-08T13:25:05.524Z,1.50
2022-08-08T13:25:38.530Z,1.40
2022-08-08T13:26:14.774Z,1.40
2022-08-08T13:26:46.866Z,1.60
2022-08-08T13:27:35.305Z,1.70
2022-08-08T13:28:08.214Z,1.30
2022-08-08T13:28:42.325Z,1.40
2022-08-08T13:29:15.330Z,1.40
2022-08-08T13:29:56.295Z,1.60
2022-08-08T13:30:29.955Z,1.90
2022-08-08T13:31:04.463Z,1.40
2022-08-08T13:31:47.017Z,1.50
2022-08-08T13:32:25.545Z,1.60
2022-08-08T13:33:00.822Z,1.50
2022-08-08T13:33:42.364Z,1.50
2022-08-08T13:34:33.246Z,1.10
2022-08-08T13:35:24.736Z,1.40
2022-08-08T13:36:01.859Z,1.30
2022-08-08T13:36:40.257Z,1.20
2022-08-08T13:37:19.857Z,1.20
2022-08-08T13:38:13.024Z,1.50
2022-08-08T13:38:46.003Z,1.50
2022-08-08T13:39:20.770Z,1.30
2022-08-08T13:39:55.069Z,1.50
2022-08-08T13:40:28.087Z,1.80
2022-08-08T13:41:00.381Z,1.90
2022-08-08T13:41:39.398Z,1.70
2022-08-08T13:42:17.249Z,1.30
2022-08-08T13:42:49.326Z,1.50
2022-08-08T13:43:23.013Z,1.60
2022-08-08T13:43:58.676Z,1.50
2022-08-08T13:44:31.331Z,1.40
2022-08-08T13:45:04.541Z,1.30
2022-08-08T13:45:36.830Z,1.30
2022-08-08T13:46:26.361Z,2.10
2022-08-08T13:47:03.679Z,1.70
2022-08-08T13:47:39.987Z,1.60
2022-08-08T13:48:27.856Z,1.50
2022-08-08T13:50:33.200Z,1.50
2022-08-08T13:50:36.695Z,1.70
2022-08-08T13:50:53.838Z,1.30
2022-08-08T13:51:37.132Z,1.30
2022-08-08T13:52:11.241Z,1.30
2022-08-08T13:52:50.829Z,1.50
2022-08-08T13:53:27.664Z,1.40
2022-08-08T13:54:03.917Z,1.20
2022-08-08T13:54:44.389Z,1.20
2022-08-08T13:55:28.997Z,1.30
2022-08-08T13:56:05.538Z,1.30
2022-08-08T13:56:44.694Z,1.40
2022-08-08T13:58:06.911Z,1.60
2022-08-08T13:58:29.777Z,1.40
2022-08-08T13:59:01.748Z,1.40
2022-08-08T13:59:44.300Z,1.60
2022-08-08T14:00:21.490Z,1.30
2022-08-08T14:00:55.086Z,2.00
2022-08-08T14:01:33.041Z,1.70
2022-08-08T14:02:31.301Z,1.90
2022-08-08T14:03:26.677Z,1.40
2022-08-08T14:03:59.526Z,1.80
2022-08-08T14:04:34.434Z,1.60
2022-08-08T14:05:22.351Z,1.50
2022-08-08T14:06:32.462Z,1.10
2022-08-08T14:07:03.971Z,1.40
2022-08-08T14:07:50.033Z,1.30
2022-08-08T14:08:29.778Z,1.30
2022-08-08T14:09:24.358Z,2.40
2022-08-08T14:10:17.456Z,1.30
2022-08-08T14:11:04.472Z,1.50
2022-08-08T14:11:36.430Z,1.50
2022-08-08T14:12:08.424Z,1.40
2022-08-08T14:12:43.811Z,1.40
2022-08-08T14:13:30.686Z,1.40
2022-08-08T14:14:09.021Z,1.50
2022-08-08T14:14:43.897Z,1.40
2022-08-08T14:15:31.336Z,1.30
2022-08-08T14:16:16.659Z,1.20
2022-08-08T14:16:52.532Z,1.60
2022-08-08T14:17:57.394Z,1.50
2022-08-08T14:18:36.019Z,1.50
2022-08-08T14:19:22.421Z,1.70
2022-08-08T14:20:15.647Z,1.50
2022-08-08T14:21:12.629Z,1.70
2022-08-08T14:21:52.132Z,1.80
2022-08-08T14:22:27.128Z,1.60
2022-08-08T14:23:21.482Z,2.00
2022-08-08T14:24:04.060Z,1.60
2022-08-08T14:24:40.367Z,1.40
2022-08-08T14:25:18.000Z,1.40
2022-08-08T14:26:00.665Z,1.50
2022-08-08T14:26:46.387Z,1.50
2022-08-08T14:27:34.216Z,1.90
2022-08-08T14:28:09.429Z,1.40
2022-08-08T14:28:54.999Z,1.50
2022-08-08T14:29:30.379Z,1.90
2022-08-08T14:30:17.885Z,1.60
2022-08-08T14:30:54.949Z,2.30
2022-08-08T14:32:05.989Z,2.00
2022-08-08T14:32:29.208Z,1.90
2022-08-08T14:33:12.746Z,2.10
2022-08-08T14:33:55.366Z,2.50
2022-08-08T14:34:31.605Z,2.90
2022-08-08T14:35:07.360Z,2.80
2022-08-08T14:35:41.343Z,2.80
2022-08-08T14:36:15.046Z,3.10
2022-08-08T14:36:51.837Z,2.40
2022-08-08T14:37:27.930Z,3.10
2022-08-08T14:38:09.540Z,3.00
2022-08-08T14:38:52.011Z,2.60
2022-08-08T14:39:48.276Z,3.10
2022-08-08T14:40:24.021Z,3.50
2022-08-08T14:40:59.092Z,3.10
2022-08-08T14:41:45.123Z,2.90
2022-08-08T14:42:26.734Z,2.90
2022-08-08T14:43:01.402Z,3.10
2022-08-08T14:44:09.867Z,3.20
2022-08-08T14:44:39.539Z,2.30
2022-08-08T14:45:13.675Z,2.80
2022-08-08T14:46:02.103Z,2.10
2022-08-08T14:46:35.794Z,2.30
2022-08-08T14:47:17.186Z,2.50
2022-08-08T14:48:02.384Z,2.20
2022-08-08T14:48:57.398Z,1.80
2022-08-08T14:49:37.961Z,1.60
2022-08-08T14:50:38.699Z,1.70
2022-08-08T14:51:17.893Z,1.80
2022-08-08T14:51:52.024Z,1.80
2022-08-08T14:52:24.646Z,1.60
2022-08-08T14:52:58.486Z,1.90
2022-08-08T14:53:35.745Z,2.20
2022-08-08T14:54:10.536Z,1.90
2022-08-08T14:54:48.194Z,1.70
2022-08-08T14:55:35.407Z,2.00
2022-08-08T14:56:14.427Z,2.30
2022-08-08T14:56:46.486Z,2.20
2022-08-08T14:57:20.646Z,2.10
2022-08-08T14:58:16.094Z,1.60
2022-08-08T14:58:49.092Z,2.00
2022-08-08T14:59:39.822Z,2.30
2022-08-08T15:00:14.926Z,2.00
2022-08-08T15:00:50.119Z,1.80
2022-08-08T15:01:37.534Z,1.60
2022-08-08T15:02:15.263Z,2.30
2022-08-08T15:02:58.580Z,1.80
2022-08-08T15:03:35.267Z,1.70
2022-08-08T15:04:16.859Z,2.30
2022-08-08T15:04:50.449Z,2.10
2022-08-08T15:05:23.854Z,2.20
2022-08-08T15:06:16.641Z,1.90
2022-08-08T15:06:48.677Z,1.90
2022-08-08T15:07:36.887Z,1.80
2022-08-08T15:08:22.111Z,1.80
2022-08-08T15:09:04.306Z,2.00
2022-08-08T15:09:36.659Z,1.80
2022-08-08T15:10:15.887Z,2.40
2022-08-08T15:10:47.993Z,1.50
2022-08-08T15:11:21.475Z,2.00
2022-08-08T15:11:53.819Z,1.60
2022-08-08T15:12:27.613Z,1.90
2022-08-08T15:13:00.095Z,1.80
2022-08-08T15:13:39.886Z,2.30
2022-08-08T15:14:14.717Z,2.00
2022-08-08T15:14:46.826Z,1.60
2022-08-08T15:16:02.653Z,2.10
2022-08-08T15:16:14.603Z,1.80
2022-08-08T15:16:47.062Z,2.50
2022-08-08T15:17:19.516Z,1.90
2022-08-08T15:17:51.918Z,2.80
2022-08-08T15:18:23.943Z,2.50
2022-08-08T15:19:03.013Z,2.40
2022-08-08T15:19:35.051Z,2.60
2022-08-08T15:20:14.017Z,2.00
2022-08-08T15:20:46.403Z,2.10
2022-08-08T15:21:21.672Z,2.60
2022-08-08T15:21:53.716Z,2.70
2022-08-08T15:22:25.906Z,2.50
2022-08-08T15:22:59.076Z,2.50
2022-08-08T15:23:35.909Z,2.70
2022-08-08T15:24:13.886Z,2.70
2022-08-08T15:24:50.045Z,3.10
2022-08-08T15:25:29.454Z,2.40
2022-08-08T15:26:09.629Z,3.50
2022-08-08T15:26:52.501Z,3.20
2022-08-08T15:28:05.185Z,3.00
2022-08-08T15:28:34.119Z,3.00
2022-08-08T15:29:07.387Z,3.30
2022-08-08T15:29:39.437Z,2.90
2022-08-08T15:30:14.445Z,3.00
2022-08-08T15:30:48.819Z,2.90
2022-08-08T15:31:55.652Z,3.40
2022-08-08T15:32:19.696Z,3.00
2022-08-08T15:32:53.251Z,2.80
2022-08-08T15:33:38.370Z,3.00
2022-08-08T15:34:31.663Z,2.60
2022-08-08T15:35:05.823Z,3.10
2022-08-08T15:35:39.897Z,3.00
2022-08-08T15:36:12.723Z,3.30
2022-08-08T15:36:50.859Z,3.00
2022-08-08T15:37:23.749Z,2.80
2022-08-08T15:37:57.130Z,2.70
2022-08-08T15:38:29.116Z,2.70
2022-08-08T15:39:01.186Z,3.20
2022-08-08T15:39:37.931Z,2.50
2022-08-08T15:40:15.407Z,3.10
2022-08-08T15:40:47.921Z,2.80
2022-08-08T15:41:24.761Z,2.70
2022-08-08T15:42:01.727Z,4.20
2022-08-08T15:42:33.718Z,2.90
2022-08-08T15:43:34.917Z,3.00
2022-08-08T15:44:00.670Z,2.50
2022-08-08T15:44:33.829Z,2.30
2022-08-08T15:45:08.042Z,3.10
2022-08-08T15:45:40.183Z,2.50
2022-08-08T15:46:15.586Z,2.50
2022-08-08T15:46:50.772Z,3.00
2022-08-08T15:47:23.581Z,2.70
2022-08-08T15:48:04.308Z,2.80
2022-08-08T15:48:47.468Z,2.60
2022-08-08T15:49:20.601Z,2.30
2022-08-08T15:49:53.090Z,2.20
2022-08-08T15:50:45.229Z,2.10
2022-08-08T15:51:18.195Z,2.40
2022-08-08T15:51:54.807Z,2.40
2022-08-08T15:52:26.902Z,2.20
2022-08-08T15:52:59.128Z,2.20
2022-08-08T15:53:40.374Z,2.00
2022-08-08T15:54:38.821Z,2.00
2022-08-08T15:55:12.942Z,2.20
2022-08-08T15:55:45.229Z,2.00
2022-08-08T15:56:22.560Z,2.40
2022-08-08T15:56:55.804Z,1.70
2022-08-08T15:57:27.766Z,1.90
2022-08-08T15:58:07.719Z,2.00
2022-08-08T15:58:45.969Z,1.90
2022-08-08T15:59:20.749Z,1.80
2022-08-08T16:00:27.099Z,1.80
2022-08-08T16:01:00.294Z,1.60
2022-08-08T16:01:41.031Z,1.70
2022-08-08T16:02:31.319Z,2.00
2022-08-08T16:03:04.183Z,1.60
2022-08-08T16:03:36.063Z,1.80
2022-08-08T16:04:08.034Z,1.90
2022-08-08T16:04:46.718Z,2.00
2022-08-08T16:05:35.870Z,2.00
2022-08-08T16:06:28.475Z,2.00
2022-08-08T16:07:01.368Z,2.20
2022-08-08T16:07:39.574Z,2.70
2022-08-08T16:08:24.894Z,2.60
2022-08-08T16:13:00.358Z,2.40
2022-08-08T16:13:05.466Z,2.30
2022-08-08T16:13:09.178Z,2.30
2022-08-08T16:13:15.436Z,3.00
2022-08-08T16:13:27.359Z,4.50
2022-08-08T16:13:33.538Z,5.90
2022-08-08T16:14:15.797Z,7.10
2022-08-08T16:14:52.822Z,7.30
2022-08-08T16:15:26.744Z,7.60
2022-08-08T16:16:09.480Z,7.40
2022-08-08T16:16:50.530Z,9.10
2022-08-08T16:17:57.554Z,7.70
2022-08-08T16:18:14.625Z,7.40
2022-08-08T16:18:57.067Z,7.80
2022-08-08T16:19:30.536Z,7.90
2022-08-08T16:20:22.585Z,5.70
2022-08-08T16:21:00.557Z,4.80
2022-08-08T16:21:34.288Z,4.60
2022-08-08T16:22:06.536Z,3.70
2022-08-08T16:22:39.070Z,3.80
2022-08-08T16:23:13.841Z,4.10
2022-08-08T16:23:48.118Z,3.70
2022-08-08T16:24:20.118Z,3.30
2022-08-08T16:24:53.942Z,3.10
2022-08-08T16:25:45.785Z,2.90
2022-08-08T16:26:22.906Z,2.80
2022-08-08T16:27:05.577Z,2.50
2022-08-08T16:27:58.225Z,2.60
2022-08-08T16:28:35.215Z,2.10
2022-08-08T16:29:15.663Z,2.70
2022-08-08T16:30:13.406Z,2.70
2022-08-08T16:30:40.374Z,2.50
2022-08-08T16:31:12.659Z,2.50
2022-08-08T16:31:49.878Z,2.00
2022-08-08T16:32:31.993Z,2.30
2022-08-08T16:33:04.244Z,2.20
2022-08-08T16:33:40.061Z,2.00
2022-08-08T16:34:14.133Z,2.30
2022-08-08T16:34:45.991Z,1.90
2022-08-08T16:35:18.957Z,1.80
2022-08-08T16:35:55.243Z,2.40
2022-08-08T16:36:34.095Z,1.90
2022-08-08T16:37:06.906Z,1.80
2022-08-08T16:37:42.943Z,1.90
2022-08-08T16:38:31.373Z,1.70
2022-08-08T16:39:09.880Z,1.90
2022-08-08T16:40:03.034Z,2.20
2022-08-08T16:40:35.668Z,1.90
2022-08-08T16:41:08.847Z,1.80
2022-08-08T16:41:43.027Z,2.40
2022-08-08T16:42:22.891Z,1.70
2022-08-08T16:42:57.738Z,1.80
2022-08-08T16:43:29.760Z,2.30
2022-08-08T16:44:27.926Z,2.10
2022-08-08T16:45:11.161Z,1.90
2022-08-08T16:46:37.543Z,2.10
2022-08-08T16:46:56.312Z,1.80
2022-08-08T16:47:40.431Z,1.90
2022-08-08T16:48:14.622Z,2.40
2022-08-08T16:48:48.392Z,2.20
2022-08-08T16:49:22.666Z,2.30
2022-08-08T16:50:14.081Z,2.50
2022-08-08T16:50:46.556Z,2.70
2022-08-08T16:55:01.764Z,2.70
2022-08-08T16:55:03.424Z,3.20
2022-08-08T16:55:03.836Z,2.50
2022-08-08T16:55:05.577Z,3.20
2022-08-08T16:55:06.673Z,3.50
2022-08-08T16:55:56.019Z,3.20
2022-08-08T16:56:29.890Z,3.40
2022-08-08T16:57:22.736Z,2.00
2022-08-08T16:58:14.563Z,2.30
2022-08-08T16:58:46.445Z,2.00
2022-08-08T16:59:21.496Z,2.00
2022-08-08T16:59:54.211Z,2.10
2022-08-08T17:00:30.162Z,2.00
2022-08-08T17:01:05.813Z,1.70
2022-08-08T17:01:39.499Z,2.00
2022-08-08T17:02:32.896Z,2.00
2022-08-08T17:03:09.940Z,2.20
2022-08-08T17:03:59.186Z,1.70
2022-08-08T17:04:33.588Z,1.70
2022-08-08T17:05:07.790Z,2.00
2022-08-08T17:05:45.151Z,2.00
2022-08-08T17:06:35.680Z,2.10
2022-08-08T17:07:09.956Z,2.00
2022-08-08T17:07:42.234Z,1.40
2022-08-08T17:08:14.105Z,1.80
2022-08-08T17:08:46.111Z,1.70
2022-08-08T17:09:23.872Z,1.90
2022-08-08T17:10:08.964Z,1.80
2022-08-08T17:10:53.540Z,2.40
2022-08-08T17:11:48.049Z,2.40
2022-08-08T17:12:21.693Z,2.20
2022-08-08T17:13:00.843Z,2.20
2022-08-08T17:13:50.304Z,1.80
2022-08-08T17:14:34.098Z,2.00
2022-08-08T17:15:20.124Z,2.40
2022-08-08T17:15:53.491Z,2.30
2022-08-08T17:16:25.887Z,2.00
2022-08-08T17:17:05.483Z,2.00
2022-08-08T17:18:02.293Z,2.10
2022-08-08T17:18:36.100Z,2.00
2022-08-08T17:19:10.791Z,2.40
2022-08-08T17:19:46.210Z,2.00
2022-08-08T17:20:22.015Z,2.30
2022-08-08T17:20:57.144Z,2.20
2022-08-08T17:21:41.439Z,2.10
2022-08-08T17:22:13.602Z,2.00
2022-08-08T17:22:45.517Z,2.50
2022-08-08T17:23:58.242Z,2.10
2022-08-08T17:24:32.292Z,2.00
2022-08-08T17:25:04.779Z,2.90
2022-08-08T17:25:51.959Z,2.30
2022-08-08T17:26:28.984Z,2.60
2022-08-08T17:27:02.706Z,2.70
2022-08-08T17:27:46.221Z,2.80
2022-08-08T17:28:19.348Z,3.00
2022-08-08T17:29:07.367Z,2.70
2022-08-08T17:29:43.755Z,3.60
2022-08-08T17:30:29.235Z,2.70
2022-08-08T17:31:44.064Z,3.00
2022-08-08T17:31:58.166Z,3.10
2022-08-08T17:32:34.299Z,3.40
2022-08-08T17:34:35.026Z,2.90
2022-08-08T17:34:37.385Z,3.40
2022-08-08T17:35:53.664Z,2.50
2022-08-08T17:36:12.547Z,2.90
2022-08-08T17:37:00.463Z,2.40
2022-08-08T17:37:35.931Z,2.50
2022-08-08T17:38:07.891Z,2.80
2022-08-08T17:38:42.866Z,2.50
2022-08-08T17:39:45.732Z,2.40
2022-08-08T17:40:15.093Z,2.70
2022-08-08T17:40:48.951Z,2.10
2022-08-08T17:41:23.033Z,2.50
2022-08-08T17:42:03.332Z,2.20
2022-08-08T17:42:36.818Z,2.50
2022-08-08T17:43:08.722Z,2.30
2022-08-08T17:44:01.318Z,2.10
2022-08-08T17:44:34.187Z,1.70
2022-08-08T17:45:22.181Z,2.50
2022-08-08T17:45:55.774Z,1.90
2022-08-08T17:46:44.167Z,1.70
2022-08-08T17:47:24.049Z,2.00
2022-08-08T17:47:57.021Z,2.10
2022-08-08T17:48:31.973Z,2.20
2022-08-08T17:49:05.776Z,2.00
2022-08-08T17:49:43.437Z,1.90
2022-08-08T17:50:16.518Z,2.30
2022-08-08T17:50:48.424Z,2.10
2022-08-08T17:51:20.384Z,2.30
2022-08-08T17:51:53.582Z,1.30
2022-08-08T17:52:27.491Z,2.10
2022-08-08T17:53:00.061Z,1.90
2022-08-08T17:53:43.327Z,1.90
2022-08-08T17:54:22.277Z,1.70
2022-08-08T17:54:59.039Z,1.80
2022-08-08T17:56:04.814Z,1.90
2022-08-08T17:56:22.855Z,2.20
2022-08-08T17:56:58.521Z,1.90
2022-08-08T17:57:35.461Z,1.90
2022-08-08T17:58:08.065Z,2.00
2022-08-08T17:58:39.961Z,2.10
2022-08-08T17:59:12.660Z,2.50
2022-08-08T17:59:45.846Z,2.60
2022-08-08T18:00:19.712Z,2.20
2022-08-08T18:00:58.061Z,2.20
2022-08-08T18:01:51.088Z,2.40
2022-08-08T18:02:28.760Z,1.90
2022-08-08T18:03:08.452Z,2.60
2022-08-08T18:03:41.878Z,2.50
2022-08-08T18:04:29.051Z,2.40
2022-08-08T18:05:04.943Z,2.80
2022-08-08T18:05:49.655Z,1.70
2022-08-08T18:06:30.679Z,2.50
2022-08-08T18:08:04.064Z,1.50
2022-08-08T18:08:48.558Z,2.00
2022-08-08T18:09:31.513Z,2.10
2022-08-08T18:10:11.043Z,2.20
2022-08-08T18:10:43.043Z,2.40
2022-08-08T18:11:16.979Z,1.40
2022-08-08T18:11:51.188Z,2.20
2022-08-08T18:12:23.279Z,2.10
2022-08-08T18:12:55.755Z,2.40
2022-08-08T18:13:27.544Z,2.10
2022-08-08T18:14:18.836Z,2.30
2022-08-08T18:14:53.703Z,2.10
2022-08-08T18:15:26.186Z,2.00
2022-08-08T18:16:04.648Z,2.00
2022-08-08T18:16:39.019Z,2.30
2022-08-08T18:17:17.199Z,2.10
2022-08-08T18:18:09.775Z,2.10
2022-08-08T18:18:45.498Z,2.40
2022-08-08T18:19:24.836Z,2.20
2022-08-08T18:20:36.620Z,1.80
2022-08-08T18:20:59.352Z,1.60
2022-08-08T18:21:59.735Z,2.20
2022-08-08T18:22:37.468Z,1.90
2022-08-08T18:23:16.624Z,2.00
2022-08-08T18:23:55.670Z,1.80
2022-08-08T18:24:30.167Z,1.80
2022-08-08T18:25:02.564Z,2.10
2022-08-08T18:25:37.469Z,1.80
2022-08-08T18:26:09.791Z,2.10
2022-08-08T18:26:41.893Z,2.00
2022-08-08T18:27:18.755Z,1.90
2022-08-08T18:27:50.632Z,2.30
2022-08-08T18:28:25.403Z,2.20
2022-08-08T18:28:57.965Z,1.90
2022-08-08T18:29:34.747Z,2.10
2022-08-08T18:30:08.020Z,2.00
2022-08-08T18:30:40.933Z,2.10
2022-08-08T18:31:13.145Z,2.40
2022-08-08T18:31:45.470Z,2.30
2022-08-08T18:32:20.431Z,2.40
2022-08-08T18:32:52.280Z,3.00
2022-08-08T18:34:12.478Z,1.80
2022-08-08T18:34:27.098Z,2.10
2022-08-08T18:34:59.673Z,2.10
2022-08-08T18:35:41.483Z,2.00
2022-08-08T18:36:18.983Z,2.50
2022-08-08T18:36:55.592Z,2.30
2022-08-08T18:37:48.089Z,2.10
2022-08-08T18:38:19.381Z,2.40
2022-08-08T18:38:51.396Z,2.20
2022-08-08T18:39:28.552Z,2.10
2022-08-08T18:40:01.349Z,2.20
2022-08-08T18:40:35.492Z,2.00
2022-08-08T18:41:07.597Z,1.60
2022-08-08T18:41:51.636Z,2.30
2022-08-08T18:42:29.655Z,1.90
2022-08-08T18:43:02.348Z,2.30
2022-08-08T18:43:48.253Z,2.40
2022-08-08T18:44:20.421Z,2.40
2022-08-08T18:44:55.445Z,6.30
2022-08-08T18:45:45.137Z,6.40
2022-08-08T18:46:54.321Z,4.70
2022-08-08T18:47:13.750Z,4.10
2022-08-08T18:47:48.687Z,4.30
2022-08-08T18:48:20.965Z,4.90
2022-08-08T18:48:58.253Z,3.00
2022-08-08T18:49:32.495Z,3.20
2022-08-08T18:50:13.205Z,3.00
2022-08-08T18:50:58.028Z,3.50
2022-08-08T18:51:53.713Z,2.70
2022-08-08T18:52:23.626Z,2.20
2022-08-08T18:52:57.398Z,2.40
2022-08-08T18:54:00.576Z,2.30
2022-08-08T18:54:22.402Z,2.70
2022-08-08T18:55:09.620Z,2.10
2022-08-08T18:55:44.045Z,2.40
2022-08-08T18:56:32.143Z,8.40
2022-08-08T18:57:04.311Z,11.00
2022-08-08T18:57:44.700Z,12.50
2022-08-08T18:58:17.764Z,10.10
2022-08-08T18:58:53.550Z,9.40
2022-08-08T18:59:34.365Z,6.60
2022-08-08T19:00:15.408Z,4.40
2022-08-08T19:00:50.203Z,2.30
2022-08-08T19:02:25.238Z,3.20
2022-08-08T19:02:28.313Z,1.60
2022-08-08T19:03:06.270Z,1.80
2022-08-08T19:04:05.274Z,2.10
2022-08-08T19:04:32.214Z,1.60
2022-08-08T19:05:08.204Z,2.30
2022-08-08T19:05:45.105Z,2.30
2022-08-08T19:06:18.729Z,2.50
2022-08-08T19:06:51.926Z,2.00
2022-08-08T19:07:29.733Z,1.90
2022-08-08T19:08:25.570Z,2.10
2022-08-08T19:09:01.755Z,1.90
2022-08-08T19:09:48.931Z,1.80
2022-08-08T19:10:41.179Z,2.20
2022-08-08T19:11:13.549Z,2.40
2022-08-08T19:11:55.622Z,3.70
2022-08-08T19:12:28.933Z,6.00
2022-08-08T19:13:00.983Z,7.00
2022-08-08T19:13:52.773Z,6.80
2022-08-08T19:14:28.167Z,5.00
2022-08-08T19:15:00.684Z,3.60
2022-08-08T19:15:34.339Z,3.40
2022-08-08T19:16:06.675Z,3.00
2022-08-08T19:16:41.253Z,2.90
2022-08-08T19:17:28.742Z,2.60
2022-08-08T19:18:33.213Z,2.00
2022-08-08T19:19:02.242Z,2.30
2022-08-08T19:19:37.369Z,1.80
2022-08-08T19:20:51.401Z,1.80
2022-08-08T19:21:31.020Z,2.10
2022-08-08T19:22:05.696Z,2.60
2022-08-08T19:22:38.203Z,2.30
2022-08-08T19:23:10.601Z,2.40
2022-08-08T19:23:42.539Z,5.30
2022-08-08T19:24:42.004Z,17.60
2022-08-08T19:26:02.295Z,17.40
2022-08-08T19:26:19.672Z,16.20
2022-08-08T19:26:53.127Z,13.30
2022-08-08T19:27:57.137Z,12.30
2022-08-08T19:28:20.277Z,9.90
2022-08-08T19:28:53.561Z,4.30
2022-08-08T19:29:25.761Z,3.80
2022-08-08T19:29:57.699Z,3.50
2022-08-08T19:30:29.710Z,2.80
2022-08-08T19:31:09.013Z,3.50
2022-08-08T19:31:41.969Z,3.30
2022-08-08T19:32:22.886Z,3.00
2022-08-08T19:32:58.132Z,4.60
2022-08-08T19:33:51.669Z,2.50
2022-08-08T19:34:36.186Z,3.10
2022-08-08T19:35:13.450Z,4.40
2022-08-08T19:36:08.644Z,4.00
2022-08-08T19:36:37.775Z,4.40
2022-08-08T19:37:16.006Z,4.60
2022-08-08T19:37:57.324Z,4.90
2022-08-08T19:38:30.031Z,3.50
2022-08-08T19:39:01.974Z,3.00
2022-08-08T19:39:35.737Z,3.50
2022-08-08T19:40:16.258Z,2.50
2022-08-08T19:40:54.362Z,2.20
2022-08-08T19:41:29.496Z,2.10
2022-08-08T19:42:01.696Z,1.90
2022-08-08T19:42:33.679Z,2.20
2022-08-08T19:43:11.608Z,2.10
2022-08-08T19:43:56.224Z,1.80
2022-08-08T19:44:42.643Z,1.80
2022-08-08T19:45:58.919Z,2.10
2022-08-08T19:46:14.032Z,1.90
2022-08-08T19:46:46.154Z,1.80
2022-08-08T19:47:24.773Z,1.30
2022-08-08T19:47:57.300Z,1.60
2022-08-08T19:48:30.996Z,1.70
2022-08-08T19:49:03.543Z,1.60
2022-08-08T19:49:37.722Z,1.20
2022-08-08T19:50:14.837Z,1.30
2022-08-08T19:50:47.031Z,1.30
2022-08-08T19:51:25.023Z,1.50
2022-08-08T19:52:07.244Z,1.50
2022-08-08T19:52:54.390Z,1.60
2022-08-08T19:53:53.213Z,1.20
2022-08-08T19:54:19.492Z,1.60
2022-08-08T19:54:56.100Z,1.20
2022-08-08T19:55:34.072Z,1.30
2022-08-08T19:56:08.527Z,1.40
2022-08-08T19:56:49.001Z,1.30
2022-08-08T19:57:21.481Z,1.20
2022-08-08T19:57:57.528Z,1.30
2022-08-08T19:58:30.703Z,1.60
2022-08-08T19:59:03.298Z,1.80
2022-08-08T19:59:35.810Z,1.10
2022-08-08T20:00:30.421Z,1.20
2022-08-08T20:01:04.645Z,1.40
2022-08-08T20:02:01.042Z,1.40
2022-08-08T20:02:32.921Z,2.20
2022-08-08T20:03:14.742Z,1.40
2022-08-08T20:04:01.437Z,1.40
2022-08-08T20:04:35.899Z,1.20
2022-08-08T20:05:12.059Z,1.30
2022-08-08T20:06:15.203Z,1.20
2022-08-08T20:06:36.500Z,1.60
2022-08-08T20:08:30.227Z,1.50
2022-08-08T20:08:38.766Z,1.40
2022-08-08T20:08:56.580Z,1.40
2022-08-08T20:09:29.946Z,1.40
2022-08-08T20:10:06.995Z,1.10
2022-08-08T20:10:39.048Z,1.30
2022-08-08T20:11:11.356Z,1.40
2022-08-08T20:11:43.368Z,1.50
2022-08-08T20:12:15.817Z,1.20
2022-08-08T20:14:10.241Z,1.20
2022-08-08T20:14:32.241Z,1.30
2022-08-08T20:14:53.347Z,1.20
2022-08-08T20:15:25.472Z,1.20
2022-08-08T20:16:18.788Z,1.80
2022-08-08T20:16:53.092Z,1.70
2022-08-08T20:17:36.505Z,1.50
2022-08-08T20:18:15.724Z,1.20
2022-08-08T20:18:53.189Z,1.50
2022-08-08T20:19:25.887Z,1.50
2022-08-08T20:20:09.701Z,1.40
2022-08-08T20:20:42.637Z,1.80
2022-08-08T20:21:16.315Z,1.50
2022-08-08T20:21:57.890Z,1.30
2022-08-08T20:22:33.068Z,1.40
2022-08-08T20:23:05.491Z,1.40
2022-08-08T20:23:44.679Z,2.00
2022-08-08T20:24:18.568Z,1.50
2022-08-08T20:24:51.998Z,1.90
2022-08-08T20:25:29.895Z,1.40
2022-08-08T20:26:03.861Z,1.30
2022-08-08T20:26:38.494Z,1.60
2022-08-08T20:27:43.965Z,1.30
2022-08-08T20:28:18.811Z,1.60
2022-08-08T20:28:52.990Z,1.20
2022-08-08T20:29:25.570Z,1.40
2022-08-08T20:30:53.239Z,1.30
2022-08-08T20:31:10.573Z,1.40
2022-08-08T20:32:07.543Z,1.50
2022-08-08T20:32:34.951Z,1.90
2022-08-08T20:33:19.863Z,1.50
2022-08-08T20:34:27.284Z,1.30
2022-08-08T20:34:38.267Z,1.50
2022-08-08T20:35:23.036Z,1.40
2022-08-08T20:36:07.703Z,1.60
2022-08-08T20:36:41.067Z,1.30
2022-08-08T20:37:15.269Z,2.00
2022-08-08T20:37:53.554Z,1.50
2022-08-08T20:38:32.218Z,1.60
2022-08-08T20:39:06.478Z,1.60
2022-08-08T20:39:51.136Z,1.70
2022-08-08T20:40:39.026Z,1.60
2022-08-08T20:41:17.790Z,1.80
2022-08-08T20:41:52.471Z,1.70
2022-08-08T20:42:29.006Z,1.60
2022-08-08T20:43:01.779Z,1.60
2022-08-08T20:43:49.760Z,1.30
2022-08-08T20:44:25.229Z,1.70
2022-08-08T20:44:58.299Z,1.90
2022-08-08T20:45:55.022Z,1.40
2022-08-08T20:46:25.441Z,1.70
2022-08-08T20:46:58.323Z,2.00
2022-08-08T20:47:35.970Z,1.70
2022-08-08T20:48:09.087Z,1.50
2022-08-08T20:48:41.089Z,2.10
2022-08-08T20:49:13.125Z,2.20
2022-08-08T20:49:46.679Z,1.70
2022-08-08T20:50:19.413Z,1.90
2022-08-08T20:50:56.894Z,1.60
2022-08-08T20:51:32.328Z,2.20
2022-08-08T20:52:05.186Z,1.60
2022-08-08T20:52:37.566Z,1.60
2022-08-08T20:53:16.371Z,1.70
2022-08-08T20:53:58.964Z,1.80
2022-08-08T20:54:33.336Z,1.60
2022-08-08T20:55:07.755Z,1.40
2022-08-08T20:55:52.461Z,2.00
2022-08-08T20:56:35.185Z,1.60
2022-08-08T20:57:18.876Z,1.80
2022-08-08T20:57:53.126Z,1.70
2022-08-08T20:58:25.008Z,1.60
2022-08-08T20:58:58.538Z,1.70
2022-08-08T20:59:31.317Z,1.60
2022-08-08T21:00:05.297Z,1.50
2022-08-08T21:00:41.252Z,2.00
2022-08-08T21:01:19.590Z,1.50
2022-08-08T21:02:06.602Z,1.70
2022-08-08T21:02:39.931Z,1.80
2022-08-08T21:03:16.770Z,2.40
2022-08-08T21:03:55.697Z,1.80
2022-08-08T21:04:32.246Z,1.80
2022-08-08T21:05:05.019Z,1.50
2022-08-08T21:05:58.746Z,2.20
2022-08-08T21:06:53.207Z,1.70
2022-08-08T21:07:28.789Z,1.50
2022-08-08T21:08:36.719Z,1.30
2022-08-08T21:09:07.812Z,1.90
2022-08-08T21:09:48.467Z,1.30
2022-08-08T21:10:32.308Z,1.10
2022-08-08T21:11:04.185Z,1.40
2022-08-08T21:11:50.612Z,1.40
2022-08-08T21:12:33.148Z,1.40
2022-08-08T21:13:08.591Z,1.50
2022-08-08T21:13:43.189Z,1.60
2022-08-08T21:14:15.066Z,1.40
2022-08-08T21:14:49.237Z,1.20
2022-08-08T21:16:04.677Z,1.20
2022-08-08T21:16:20.540Z,1.80
2022-08-08T21:17:05.872Z,1.40
2022-08-08T21:17:38.452Z,1.30
2022-08-08T21:18:12.218Z,1.30
2022-08-08T21:18:45.998Z,1.30
2022-08-08T21:19:17.874Z,1.50
2022-08-08T21:19:49.706Z,1.40
2022-08-08T21:20:34.111Z,1.50
2022-08-08T21:21:20.423Z,1.40
2022-08-08T21:22:01.725Z,1.30
2022-08-08T21:22:33.866Z,2.10
2022-08-08T21:23:09.001Z,1.90
2022-08-08T21:24:02.462Z,1.20
2022-08-08T21:24:35.263Z,1.80
2022-08-08T21:25:13.496Z,1.50
2022-08-08T21:25:48.959Z,1.50
2022-08-08T21:26:27.212Z,1.40
2022-08-08T21:26:59.709Z,1.70
2022-08-08T21:28:05.679Z,1.60
2022-08-08T21:28:33.465Z,1.50
2022-08-08T21:29:07.969Z,1.30
2022-08-08T21:30:03.962Z,1.60
2022-08-08T21:30:38.091Z,1.70
2022-08-08T21:31:22.843Z,2.00
2022-08-08T21:31:59.223Z,1.20
2022-08-08T21:32:32.632Z,1.30
2022-08-08T21:33:10.857Z,1.60
2022-08-08T21:33:43.548Z,1.50
2022-08-08T21:34:18.662Z,1.60
2022-08-08T21:34:50.982Z,1.80
2022-08-08T21:36:18.149Z,1.50
2022-08-08T21:36:28.639Z,1.50
2022-08-08T21:37:06.782Z,1.60
2022-08-08T21:37:54.174Z,1.30
2022-08-08T21:38:27.459Z,1.40
2022-08-08T21:38:59.815Z,1.60
2022-08-08T21:39:54.700Z,1.50
2022-08-08T21:40:31.082Z,1.30
2022-08-08T21:41:03.664Z,1.70
2022-08-08T21:41:42.919Z,1.40
2022-08-08T21:42:23.647Z,1.40
2022-08-08T21:42:55.657Z,1.20
2022-08-08T21:43:33.396Z,1.40
2022-08-08T21:44:06.459Z,1.30
2022-08-08T21:44:38.299Z,1.60
2022-08-08T21:48:01.969Z,1.50
2022-08-08T21:48:04.626Z,1.20
2022-08-08T21:48:06.371Z,1.50
2022-08-08T21:48:12.933Z,1.50
2022-08-08T21:48:53.312Z,1.40
2022-08-08T21:49:26.119Z,1.40
2022-08-08T21:49:59.863Z,1.20
2022-08-08T21:50:31.856Z,1.70
2022-08-08T21:51:10.239Z,1.40
2022-08-08T21:54:17.694Z,1.30
2022-08-08T21:54:22.485Z,1.70
2022-08-08T21:54:33.582Z,1.60
2022-08-08T21:54:35.832Z,1.30
2022-08-08T21:55:24.019Z,1.40
2022-08-08T21:56:30.999Z,1.60